sensor_id;sensor_type;location;lat;lon;timestamp;pressure;altitude;pressure_sealevel;temperature;humidity
74524;BME280;63074;44.696;10.358;2023-07-13T00:01:28;99774.66;;;30.21;81.94
74524;BME280;63074;44.696;10.358;2023-07-13T00:03:58;99802.91;;;30.30;81.10
74524;BME280;63074;44.696;10.358;2023-07-13T00:06:25;99814.00;;;30.30;80.76
74524;BME280;63074;44.696;10.358;2023-07-13T00:08:59;99813.13;;;30.52;78.44
74524;BME280;63074;44.696;10.358;2023-07-13T00:11:25;99814.31;;;31.45;74.45
74524;BME280;63074;44.696;10.358;2023-07-13T00:13:54;99840.63;;;30.12;77.03
74524;BME280;63074;44.696;10.358;2023-07-13T00:16:20;99840.06;;;30.52;74.73
74524;BME280;63074;44.696;10.358;2023-07-13T00:18:47;99822.03;;;31.29;72.87
74524;BME280;63074;44.696;10.358;2023-07-13T00:21:13;99825.91;;;30.90;71.49
74524;BME280;63074;44.696;10.358;2023-07-13T00:23:42;99841.13;;;31.00;71.60
74524;BME280;63074;44.696;10.358;2023-07-13T00:26:10;99840.00;;;30.75;71.16
74524;BME280;63074;44.696;10.358;2023-07-13T00:28:38;99829.00;;;31.12;69.29
74524;BME280;63074;44.696;10.358;2023-07-13T00:31:08;99820.41;;;30.94;68.13
74524;BME280;63074;44.696;10.358;2023-07-13T00:33:34;99802.09;;;31.19;67.19
74524;BME280;63074;44.696;10.358;2023-07-13T00:36:01;99798.88;;;31.51;66.06
74524;BME280;63074;44.696;10.358;2023-07-13T00:38:28;99822.44;;;30.67;67.88
74524;BME280;63074;44.696;10.358;2023-07-13T00:40:55;99792.66;;;31.24;66.28
74524;BME280;63074;44.696;10.358;2023-07-13T00:43:22;99799.38;;;31.23;65.02
74524;BME280;63074;44.696;10.358;2023-07-13T00:48:21;99773.06;;;31.91;63.32
74524;BME280;63074;44.696;10.358;2023-07-13T00:50:50;99764.59;;;31.73;62.10
74524;BME280;63074;44.696;10.358;2023-07-13T00:53:19;99783.59;;;31.68;62.29
74524;BME280;63074;44.696;10.358;2023-07-13T00:55:46;99781.31;;;31.80;62.27
74524;BME280;63074;44.696;10.358;2023-07-13T00:58:14;99775.19;;;31.64;62.69
74524;BME280;63074;44.696;10.358;2023-07-13T01:00:42;99770.19;;;31.80;61.86
74524;BME280;63074;44.696;10.358;2023-07-13T01:03:08;99778.66;;;30.80;63.74
74524;BME280;63074;44.696;10.358;2023-07-13T01:05:36;99767.09;;;31.08;63.28
74524;BME280;63074;44.696;10.358;2023-07-13T01:10:29;99813.47;;;30.21;66.49
74524;BME280;63074;44.696;10.358;2023-07-13T01:12:55;99797.28;;;30.79;65.41
74524;BME280;63074;44.696;10.358;2023-07-13T01:15:42;99762.81;;;31.14;63.96
74524;BME280;63074;44.696;10.358;2023-07-13T01:18:11;99800.66;;;30.39;67.35
74524;BME280;63074;44.696;10.358;2023-07-13T01:20:39;99814.81;;;29.85;68.46
74524;BME280;63074;44.696;10.358;2023-07-13T01:23:09;99795.78;;;30.03;68.17
74524;BME280;63074;44.696;10.358;2023-07-13T01:25:37;99820.69;;;29.18;70.85
74524;BME280;63074;44.696;10.358;2023-07-13T01:30:30;99782.88;;;29.45;69.67
74524;BME280;63074;44.696;10.358;2023-07-13T01:32:58;99799.47;;;28.84;72.72
74524;BME280;63074;44.696;10.358;2023-07-13T01:35:25;99793.91;;;28.65;73.89
74524;BME280;63074;44.696;10.358;2023-07-13T01:37:53;99748.25;;;29.55;71.36
74524;BME280;63074;44.696;10.358;2023-07-13T01:40:19;99764.53;;;28.95;72.32
74524;BME280;63074;44.696;10.358;2023-07-13T01:42:46;99737.16;;;28.90;72.59
74524;BME280;63074;44.696;10.358;2023-07-13T01:45:12;99726.25;;;28.59;74.20
74524;BME280;63074;44.696;10.358;2023-07-13T01:47:38;99683.72;;;29.51;71.75
74524;BME280;63074;44.696;10.358;2023-07-13T01:52:30;99715.47;;;29.11;71.89
74524;BME280;63074;44.696;10.358;2023-07-13T01:54:56;99723.97;;;28.64;73.59
74524;BME280;63074;44.696;10.358;2023-07-13T01:57:22;99701.06;;;28.64;74.91
74524;BME280;63074;44.696;10.358;2023-07-13T01:59:49;99684.38;;;28.56;74.16
74524;BME280;63074;44.696;10.358;2023-07-13T02:02:15;99671.03;;;28.81;73.80
74524;BME280;63074;44.696;10.358;2023-07-13T02:04:41;99656.28;;;29.65;70.30
74524;BME280;63074;44.696;10.358;2023-07-13T02:07:08;99660.25;;;29.94;68.88
74524;BME280;63074;44.696;10.358;2023-07-13T02:09:35;99667.31;;;30.48;67.71
74524;BME280;63074;44.696;10.358;2023-07-13T02:12:01;99693.34;;;30.10;67.88
74524;BME280;63074;44.696;10.358;2023-07-13T02:14:27;99673.09;;;30.66;66.77
74524;BME280;63074;44.696;10.358;2023-07-13T02:16:54;99682.06;;;30.55;66.24
74524;BME280;63074;44.696;10.358;2023-07-13T02:19:20;99676.50;;;30.85;64.65
74524;BME280;63074;44.696;10.358;2023-07-13T02:21:46;99662.53;;;31.19;63.81
74524;BME280;63074;44.696;10.358;2023-07-13T02:24:12;99691.63;;;30.95;64.60
74524;BME280;63074;44.696;10.358;2023-07-13T02:26:43;99696.00;;;31.33;62.88
74524;BME280;63074;44.696;10.358;2023-07-13T02:29:10;99702.19;;;31.16;63.86
74524;BME280;63074;44.696;10.358;2023-07-13T02:31:36;99692.34;;;31.26;63.62
74524;BME280;63074;44.696;10.358;2023-07-13T02:42:24;99714.81;;;30.76;64.88
74524;BME280;63074;44.696;10.358;2023-07-13T02:44:51;99693.31;;;31.47;63.20
74524;BME280;63074;44.696;10.358;2023-07-13T02:47:17;99697.13;;;31.69;62.03
74524;BME280;63074;44.696;10.358;2023-07-13T02:49:43;99706.31;;;31.84;61.39
74524;BME280;63074;44.696;10.358;2023-07-13T02:52:10;99729.91;;;31.12;62.89
74524;BME280;63074;44.696;10.358;2023-07-13T02:54:36;99715.53;;;31.47;62.25
74524;BME280;63074;44.696;10.358;2023-07-13T02:57:02;99696.34;;;31.72;61.21
74524;BME280;63074;44.696;10.358;2023-07-13T02:59:28;99705.19;;;31.41;61.72
74524;BME280;63074;44.696;10.358;2023-07-13T03:01:55;99742.25;;;30.85;64.13
74524;BME280;63074;44.696;10.358;2023-07-13T03:04:21;99730.34;;;31.18;63.46
74524;BME280;63074;44.696;10.358;2023-07-13T03:06:47;99725.25;;;31.23;62.78
74524;BME280;63074;44.696;10.358;2023-07-13T03:09:13;99749.38;;;31.16;64.28
74524;BME280;63074;44.696;10.358;2023-07-13T03:11:40;99751.81;;;30.91;64.94
74524;BME280;63074;44.696;10.358;2023-07-13T03:14:07;99762.13;;;30.31;65.59
74524;BME280;63074;44.696;10.358;2023-07-13T03:16:34;99764.19;;;30.37;66.82
74524;BME280;63074;44.696;10.358;2023-07-13T03:19:00;99740.16;;;30.75;65.36
74524;BME280;63074;44.696;10.358;2023-07-13T03:21:26;99726.91;;;31.32;63.75
74524;BME280;63074;44.696;10.358;2023-07-13T03:23:52;99782.63;;;29.77;67.01
74524;BME280;63074;44.696;10.358;2023-07-13T03:26:20;99885.50;;;27.69;79.32
74524;BME280;63074;44.696;10.358;2023-07-13T03:28:46;99646.00;;;26.87;90.13
74524;BME280;63074;44.696;10.358;2023-07-13T03:31:18;99616.06;;;27.64;88.73
74524;BME280;63074;44.696;10.358;2023-07-13T03:33:45;99637.63;;;28.13;85.60
74524;BME280;63074;44.696;10.358;2023-07-13T03:36:21;99657.28;;;29.53;78.10
74524;BME280;63074;44.696;10.358;2023-07-13T03:38:50;99693.03;;;30.15;74.21
74524;BME280;63074;44.696;10.358;2023-07-13T03:41:16;99705.75;;;30.49;72.95
74524;BME280;63074;44.696;10.358;2023-07-13T03:43:43;99748.50;;;29.04;78.34
74524;BME280;63074;44.696;10.358;2023-07-13T03:46:09;99707.41;;;28.45;81.72
74524;BME280;63074;44.696;10.358;2023-07-13T03:48:36;99680.94;;;29.74;77.03
74524;BME280;63074;44.696;10.358;2023-07-13T03:51:02;99701.25;;;30.68;72.54
74524;BME280;63074;44.696;10.358;2023-07-13T03:53:30;99713.97;;;30.72;70.96
74524;BME280;63074;44.696;10.358;2023-07-13T03:55:56;99714.56;;;30.88;69.98
74524;BME280;63074;44.696;10.358;2023-07-13T03:58:30;99714.25;;;30.97;69.30
74524;BME280;63074;44.696;10.358;2023-07-13T04:00:57;99719.13;;;31.07;68.55
74524;BME280;63074;44.696;10.358;2023-07-13T04:03:23;99725.19;;;31.20;68.16
74524;BME280;63074;44.696;10.358;2023-07-13T04:05:50;99751.00;;;30.87;68.24
74524;BME280;63074;44.696;10.358;2023-07-13T04:08:16;99755.16;;;31.04;67.87
74524;BME280;63074;44.696;10.358;2023-07-13T04:10:45;99761.41;;;30.97;68.14
74524;BME280;63074;44.696;10.358;2023-07-13T04:13:11;99777.38;;;30.74;68.76
74524;BME280;63074;44.696;10.358;2023-07-13T04:15:39;99798.63;;;30.63;69.94
74524;BME280;63074;44.696;10.358;2023-07-13T04:18:06;99813.28;;;30.37;71.00
74524;BME280;63074;44.696;10.358;2023-07-13T04:20:32;99821.09;;;30.05;72.63
74524;BME280;63074;44.696;10.358;2023-07-13T04:22:58;99786.81;;;30.69;71.39
74524;BME280;63074;44.696;10.358;2023-07-13T04:25:25;99780.25;;;30.81;70.07
74524;BME280;63074;44.696;10.358;2023-07-13T04:27:52;99763.88;;;31.06;68.97
74524;BME280;63074;44.696;10.358;2023-07-13T04:30:18;99766.13;;;30.93;68.78
74524;BME280;63074;44.696;10.358;2023-07-13T04:32:45;99785.69;;;30.74;69.61
74524;BME280;63074;44.696;10.358;2023-07-13T04:35:11;99766.16;;;30.97;68.41
74524;BME280;63074;44.696;10.358;2023-07-13T04:37:38;99766.00;;;30.82;69.31
74524;BME280;63074;44.696;10.358;2023-07-13T04:42:31;99761.72;;;30.88;69.70
74524;BME280;63074;44.696;10.358;2023-07-13T04:44:57;99775.41;;;30.74;70.18
74524;BME280;63074;44.696;10.358;2023-07-13T04:47:23;99774.31;;;30.82;71.13
74524;BME280;63074;44.696;10.358;2023-07-13T04:49:49;99795.59;;;31.05;70.61
74524;BME280;63074;44.696;10.358;2023-07-13T04:52:16;99821.16;;;30.58;72.60
74524;BME280;63074;44.696;10.358;2023-07-13T04:54:42;99798.78;;;30.73;70.81
74524;BME280;63074;44.696;10.358;2023-07-13T04:57:08;99802.69;;;30.16;73.71
74524;BME280;63074;44.696;10.358;2023-07-13T04:59:34;99795.16;;;30.43;73.31
74524;BME280;63074;44.696;10.358;2023-07-13T05:02:01;99801.66;;;30.54;73.20
74524;BME280;63074;44.696;10.358;2023-07-13T05:04:27;99801.50;;;30.70;71.72
74524;BME280;63074;44.696;10.358;2023-07-13T05:06:53;99806.19;;;30.13;73.96
74524;BME280;63074;44.696;10.358;2023-07-13T05:09:20;99795.06;;;30.36;73.75
74524;BME280;63074;44.696;10.358;2023-07-13T05:11:46;99783.78;;;30.21;75.21
74524;BME280;63074;44.696;10.358;2023-07-13T05:14:12;99779.94;;;30.30;75.34
74524;BME280;63074;44.696;10.358;2023-07-13T05:16:38;99774.38;;;30.86;74.67
74524;BME280;63074;44.696;10.358;2023-07-13T05:21:30;99787.59;;;31.00;73.82
74524;BME280;63074;44.696;10.358;2023-07-13T05:23:56;99775.44;;;31.11;73.24
74524;BME280;63074;44.696;10.358;2023-07-13T05:26:23;99772.25;;;31.43;72.62
74524;BME280;63074;44.696;10.358;2023-07-13T05:28:49;99783.75;;;28.18;88.78
74524;BME280;63074;44.696;10.358;2023-07-13T05:31:15;99693.22;;;28.46;88.83
74524;BME280;63074;44.696;10.358;2023-07-13T05:33:41;99737.91;;;29.75;80.86
74524;BME280;63074;44.696;10.358;2023-07-13T05:36:08;99710.63;;;28.47;87.59
74524;BME280;63074;44.696;10.358;2023-07-13T05:38:34;99689.91;;;29.41;82.93
74524;BME280;63074;44.696;10.358;2023-07-13T05:41:00;99703.69;;;30.43;78.59
74524;BME280;63074;44.696;10.358;2023-07-13T05:43:27;99747.75;;;29.49;80.71
74524;BME280;63074;44.696;10.358;2023-07-13T05:45:56;99717.91;;;29.16;84.44
74524;BME280;63074;44.696;10.358;2023-07-13T05:48:23;99707.25;;;30.13;80.99
74524;BME280;63074;44.696;10.358;2023-07-13T05:50:49;99734.78;;;30.93;76.12
74524;BME280;63074;44.696;10.358;2023-07-13T05:53:16;99773.09;;;30.50;76.18
74524;BME280;63074;44.696;10.358;2023-07-13T05:55:48;99750.06;;;30.76;75.67
74524;BME280;63074;44.696;10.358;2023-07-13T05:58:17;99746.88;;;31.07;72.94
74524;BME280;63074;44.696;10.358;2023-07-13T06:00:43;99788.63;;;30.28;75.09
74524;BME280;63074;44.696;10.358;2023-07-13T06:03:09;99760.06;;;29.52;80.51
74524;BME280;63074;44.696;10.358;2023-07-13T06:05:37;99735.16;;;30.87;74.90
74524;BME280;63074;44.696;10.358;2023-07-13T06:10:32;99757.19;;;31.44;70.78
74524;BME280;63074;44.696;10.358;2023-07-13T06:12:58;99791.47;;;31.25;71.65
74524;BME280;63074;44.696;10.358;2023-07-13T06:15:24;99764.75;;;31.50;69.74
74524;BME280;63074;44.696;10.358;2023-07-13T06:17:50;99755.44;;;31.69;68.82
74524;BME280;63074;44.696;10.358;2023-07-13T06:20:17;99790.41;;;31.74;70.09
74524;BME280;63074;44.696;10.358;2023-07-13T06:22:43;99834.81;;;30.73;73.17
74524;BME280;63074;44.696;10.358;2023-07-13T06:25:09;99820.06;;;29.90;79.69
74524;BME280;63074;44.696;10.358;2023-07-13T06:27:35;99786.59;;;29.99;79.95
74524;BME280;63074;44.696;10.358;2023-07-13T06:30:01;99743.13;;;29.34;84.13
74524;BME280;63074;44.696;10.358;2023-07-13T06:32:28;99694.59;;;28.95;88.00
74524;BME280;63074;44.696;10.358;2023-07-13T06:34:54;99665.44;;;29.96;85.85
74524;BME280;63074;44.696;10.358;2023-07-13T06:37:20;99695.34;;;30.73;80.70
74524;BME280;63074;44.696;10.358;2023-07-13T06:39:46;99703.00;;;30.83;77.82
74524;BME280;63074;44.696;10.358;2023-07-13T06:42:12;99725.41;;;31.04;75.91
74524;BME280;63074;44.696;10.358;2023-07-13T06:44:39;99753.78;;;30.87;75.92
74524;BME280;63074;44.696;10.358;2023-07-13T06:49:31;99803.41;;;30.96;72.82
74524;BME280;63074;44.696;10.358;2023-07-13T06:51:57;99810.59;;;31.00;73.16
74524;BME280;63074;44.696;10.358;2023-07-13T06:54:23;99841.06;;;28.72;83.54
74524;BME280;63074;44.696;10.358;2023-07-13T06:56:49;99793.19;;;30.17;79.53
74524;BME280;63074;44.696;10.358;2023-07-13T06:59:15;99811.38;;;29.92;79.62
74524;BME280;63074;44.696;10.358;2023-07-13T07:01:41;99800.44;;;29.99;78.86
74524;BME280;63074;44.696;10.358;2023-07-13T07:04:08;99797.03;;;30.09;78.08
74524;BME280;63074;44.696;10.358;2023-07-13T07:06:34;99815.09;;;29.34;80.82
74524;BME280;63074;44.696;10.358;2023-07-13T07:09:00;99760.22;;;29.85;79.94
74524;BME280;63074;44.696;10.358;2023-07-13T07:11:27;99755.34;;;29.52;81.41
74524;BME280;63074;44.696;10.358;2023-07-13T07:13:53;99743.31;;;30.17;79.67
74524;BME280;63074;44.696;10.358;2023-07-13T07:16:20;99767.09;;;30.18;79.38
74524;BME280;63074;44.696;10.358;2023-07-13T07:18:47;99793.81;;;30.33;77.07
74524;BME280;63074;44.696;10.358;2023-07-13T07:21:13;99793.50;;;30.65;76.33
74524;BME280;63074;44.696;10.358;2023-07-13T07:23:40;99785.19;;;30.65;76.97
74524;BME280;63074;44.696;10.358;2023-07-13T07:26:07;99790.25;;;30.89;76.24
74524;BME280;63074;44.696;10.358;2023-07-13T07:28:35;99781.63;;;30.38;78.02
74524;BME280;63074;44.696;10.358;2023-07-13T07:31:01;99744.78;;;30.37;78.67
74524;BME280;63074;44.696;10.358;2023-07-13T07:33:27;99722.94;;;30.59;77.76
74524;BME280;63074;44.696;10.358;2023-07-13T07:35:54;99748.63;;;28.34;85.93
74524;BME280;63074;44.696;10.358;2023-07-13T07:38:20;99637.81;;;28.39;89.36
74524;BME280;63074;44.696;10.358;2023-07-13T07:40:46;99667.88;;;29.74;82.48
74524;BME280;63074;44.696;10.358;2023-07-13T07:43:13;99685.03;;;30.40;79.51
74524;BME280;63074;44.696;10.358;2023-07-13T07:45:40;99717.53;;;30.73;76.47
74524;BME280;63074;44.696;10.358;2023-07-13T07:48:07;99773.47;;;29.96;80.55
74524;BME280;63074;44.696;10.358;2023-07-13T07:50:35;99796.09;;;29.33;82.33
74524;BME280;63074;44.696;10.358;2023-07-13T07:53:01;99728.56;;;28.95;87.65
74524;BME280;63074;44.696;10.358;2023-07-13T07:55:28;99707.16;;;29.57;85.70
74524;BME280;63074;44.696;10.358;2023-07-13T07:57:56;99674.47;;;30.19;83.33
74524;BME280;63074;44.696;10.358;2023-07-13T08:00:22;99621.41;;;28.27;92.83
74524;BME280;63074;44.696;10.358;2023-07-13T08:02:49;99616.72;;;28.31;93.91
74524;BME280;63074;44.696;10.358;2023-07-13T08:05:15;99634.84;;;28.29;95.65
74524;BME280;63074;44.696;10.358;2023-07-13T08:07:41;99655.09;;;28.17;99.06
74524;BME280;63074;44.696;10.358;2023-07-13T08:10:08;99676.28;;;29.09;94.60
74524;BME280;63074;44.696;10.358;2023-07-13T08:12:36;99621.81;;;29.36;94.53
74524;BME280;63074;44.696;10.358;2023-07-13T08:15:03;99623.22;;;30.06;91.55
74524;BME280;63074;44.696;10.358;2023-07-13T08:17:29;99676.13;;;28.79;96.26
74524;BME280;63074;44.696;10.358;2023-07-13T08:19:55;99691.91;;;28.40;100.00
74524;BME280;63074;44.696;10.358;2023-07-13T08:22:22;99697.72;;;28.93;100.00
74524;BME280;63074;44.696;10.358;2023-07-13T08:24:48;99713.84;;;28.33;100.00
74524;BME280;63074;44.696;10.358;2023-07-13T08:27:22;99672.31;;;27.75;100.00
74524;BME280;63074;44.696;10.358;2023-07-13T08:29:48;99661.19;;;28.07;100.00
74524;BME280;63074;44.696;10.358;2023-07-13T08:32:15;99687.56;;;28.59;100.00
74524;BME280;63074;44.696;10.358;2023-07-13T08:34:42;99706.41;;;28.53;100.00
74524;BME280;63074;44.696;10.358;2023-07-13T08:37:09;99663.31;;;28.33;100.00
74524;BME280;63074;44.696;10.358;2023-07-13T08:39:35;99586.81;;;26.81;100.00
74524;BME280;63074;44.696;10.358;2023-07-13T08:44:47;99579.56;;;28.71;100.00
74524;BME280;63074;44.696;10.358;2023-07-13T08:47:16;99610.94;;;28.01;100.00
74524;BME280;63074;44.696;10.358;2023-07-13T08:49:44;99593.56;;;26.83;100.00
74524;BME280;63074;44.696;10.358;2023-07-13T08:54:51;99602.94;;;27.77;100.00
74524;BME280;63074;44.696;10.358;2023-07-13T08:57:26;99630.47;;;28.47;100.00
74524;BME280;63074;44.696;10.358;2023-07-13T08:59:56;99641.44;;;28.43;100.00
74524;BME280;63074;44.696;10.358;2023-07-13T09:05:42;99669.66;;;28.33;100.00
74524;BME280;63074;44.696;10.358;2023-07-13T09:13:53;99717.06;;;29.12;100.00
74524;BME280;63074;44.696;10.358;2023-07-13T09:16:22;99707.41;;;28.64;100.00
74524;BME280;63074;44.696;10.358;2023-07-13T09:18:51;99721.38;;;28.17;100.00
74524;BME280;63074;44.696;10.358;2023-07-13T09:21:30;99708.41;;;28.95;100.00
74524;BME280;63074;44.696;10.358;2023-07-13T09:24:00;99740.63;;;29.71;100.00
74524;BME280;63074;44.696;10.358;2023-07-13T09:26:29;99794.06;;;30.21;100.00
74524;BME280;63074;44.696;10.358;2023-07-13T09:29:03;99799.56;;;29.95;98.84
74524;BME280;63074;44.696;10.358;2023-07-13T09:31:34;99808.25;;;29.93;95.51
74524;BME280;63074;44.696;10.358;2023-07-13T09:34:02;99816.66;;;29.77;98.95
74524;BME280;63074;44.696;10.358;2023-07-13T09:36:32;99825.03;;;30.00;88.56
74524;BME280;63074;44.696;10.358;2023-07-13T09:41:41;99804.06;;;29.80;95.79
74524;BME280;63074;44.696;10.358;2023-07-13T09:44:15;99787.78;;;30.24;92.94
74524;BME280;63074;44.696;10.358;2023-07-13T09:46:53;99824.78;;;31.25;88.61
74524;BME280;63074;44.696;10.358;2023-07-13T09:49:24;99848.38;;;30.78;88.50
74524;BME280;63074;44.696;10.358;2023-07-13T09:54:33;99825.53;;;31.18;86.40
74524;BME280;63074;44.696;10.358;2023-07-13T09:57:01;99854.78;;;31.46;84.81
74524;BME280;63074;44.696;10.358;2023-07-13T09:59:32;99855.16;;;31.48;84.71
74524;BME280;63074;44.696;10.358;2023-07-13T10:01:58;99841.00;;;30.93;86.88
74524;BME280;63074;44.696;10.358;2023-07-13T10:04:34;99860.31;;;31.83;88.32
74524;BME280;63074;44.696;10.358;2023-07-13T10:09:30;99815.81;;;31.79;86.82
74524;BME280;63074;44.696;10.358;2023-07-13T10:11:57;99820.97;;;31.77;86.88
74524;BME280;63074;44.696;10.358;2023-07-13T10:14:23;99783.13;;;30.05;93.67
74524;BME280;63074;44.696;10.358;2023-07-13T10:16:57;99761.06;;;31.02;95.48
74524;BME280;63074;44.696;10.358;2023-07-13T10:19:27;99817.72;;;32.19;89.45
74524;BME280;63074;44.696;10.358;2023-07-13T10:24:37;99852.22;;;32.63;82.81
74524;BME280;63074;44.696;10.358;2023-07-13T10:29:37;99829.19;;;32.73;81.75
74524;BME280;63074;44.696;10.358;2023-07-13T10:32:11;99863.25;;;32.52;81.44
74524;BME280;63074;44.696;10.358;2023-07-13T10:34:38;99835.81;;;32.47;82.83
74524;BME280;63074;44.696;10.358;2023-07-13T10:39:31;99840.16;;;33.17;81.00
74524;BME280;63074;44.696;10.358;2023-07-13T10:42:03;99845.44;;;33.50;78.94
74524;BME280;63074;44.696;10.358;2023-07-13T10:44:33;99836.88;;;32.90;76.78
74524;BME280;63074;44.696;10.358;2023-07-13T10:49:32;99850.59;;;32.58;78.25
74524;BME280;63074;44.696;10.358;2023-07-13T10:52:01;99827.94;;;33.53;77.25
74524;BME280;63074;44.696;10.358;2023-07-13T10:54:34;99848.28;;;33.72;78.57
74524;BME280;63074;44.696;10.358;2023-07-13T10:59:30;99842.72;;;33.86;78.44
74524;BME280;63074;44.696;10.358;2023-07-13T11:04:41;99843.13;;;33.81;78.54
74524;BME280;63074;44.696;10.358;2023-07-13T11:07:23;99811.25;;;34.17;73.32
74524;BME280;63074;44.696;10.358;2023-07-13T11:09:55;99892.38;;;31.73;85.13
74524;BME280;63074;44.696;10.358;2023-07-13T11:25:32;99813.66;;;33.91;71.40
74524;BME280;63074;44.696;10.358;2023-07-13T11:35:32;99842.16;;;33.20;75.86
74524;BME280;63074;44.696;10.358;2023-07-13T11:37:59;99816.78;;;33.43;73.60
74524;BME280;63074;44.696;10.358;2023-07-13T11:40:28;99804.09;;;34.20;74.28
74524;BME280;63074;44.696;10.358;2023-07-13T11:43:02;99810.25;;;35.02;72.27
74524;BME280;63074;44.696;10.358;2023-07-13T11:45:28;99811.13;;;34.92;68.31
74524;BME280;63074;44.696;10.358;2023-07-13T11:47:55;99805.19;;;35.52;67.92
74524;BME280;63074;44.696;10.358;2023-07-13T11:50:26;99821.50;;;34.84;69.11
74524;BME280;63074;44.696;10.358;2023-07-13T11:52:53;99797.91;;;36.14;65.16
74524;BME280;63074;44.696;10.358;2023-07-13T11:55:23;99818.91;;;35.92;65.85
74524;BME280;63074;44.696;10.358;2023-07-13T11:58:02;99796.09;;;37.06;61.50
74524;BME280;63074;44.696;10.358;2023-07-13T12:00:31;99804.28;;;36.93;61.38
74524;BME280;63074;44.696;10.358;2023-07-13T12:03:00;99831.00;;;35.71;63.72
74524;BME280;63074;44.696;10.358;2023-07-13T12:05:28;99828.22;;;35.71;63.20
74524;BME280;63074;44.696;10.358;2023-07-13T12:07:55;99799.16;;;36.88;60.75
74524;BME280;63074;44.696;10.358;2023-07-13T12:10:29;99790.44;;;36.79;58.71
74524;BME280;63074;44.696;10.358;2023-07-13T12:13:02;99846.13;;;35.07;62.33
74524;BME280;63074;44.696;10.358;2023-07-13T12:15:43;99787.88;;;36.20;58.23
74524;BME280;63074;44.696;10.358;2023-07-13T12:18:19;99775.00;;;36.98;56.63
74524;BME280;63074;44.696;10.358;2023-07-13T12:20:47;99779.22;;;37.67;56.84
74524;BME280;63074;44.696;10.358;2023-07-13T12:23:31;99759.47;;;37.97;54.47
74524;BME280;63074;44.696;10.358;2023-07-13T12:25:58;99786.06;;;37.08;55.29
74524;BME280;63074;44.696;10.358;2023-07-13T12:28:35;99747.69;;;37.59;53.11
74524;BME280;63074;44.696;10.358;2023-07-13T12:33:31;99792.13;;;37.34;55.47
74524;BME280;63074;44.696;10.358;2023-07-13T12:36:01;99761.47;;;38.20;52.73
74524;BME280;63074;44.696;10.358;2023-07-13T12:38:29;99741.41;;;38.22;51.64
74524;BME280;63074;44.696;10.358;2023-07-13T12:40:55;99733.56;;;38.72;50.53
74524;BME280;63074;44.696;10.358;2023-07-13T12:43:23;99747.09;;;37.95;50.80
74524;BME280;63074;44.696;10.358;2023-07-13T12:48:29;99821.09;;;36.93;56.56
74524;BME280;63074;44.696;10.358;2023-07-13T12:51:00;99781.25;;;37.66;53.66
74524;BME280;63074;44.696;10.358;2023-07-13T12:53:30;99754.28;;;38.98;50.89
74524;BME280;63074;44.696;10.358;2023-07-13T12:56:01;99769.16;;;38.16;51.57
74524;BME280;63074;44.696;10.358;2023-07-13T12:58:32;99797.16;;;38.20;53.16
74524;BME280;63074;44.696;10.358;2023-07-13T13:01:03;99817.81;;;37.29;54.26
74524;BME280;63074;44.696;10.358;2023-07-13T13:03:36;99779.88;;;38.84;50.50
74524;BME280;63074;44.696;10.358;2023-07-13T13:06:04;99780.63;;;38.68;50.50
74524;BME280;63074;44.696;10.358;2023-07-13T13:08:32;99742.63;;;39.52;47.23
74524;BME280;63074;44.696;10.358;2023-07-13T13:10:59;99726.69;;;40.39;46.16
74524;BME280;63074;44.696;10.358;2023-07-13T13:13:25;99762.09;;;38.08;48.61
74524;BME280;63074;44.696;10.358;2023-07-13T13:15:52;99802.03;;;38.15;49.87
74524;BME280;63074;44.696;10.358;2023-07-13T13:18:23;99730.22;;;39.82;45.46
74524;BME280;63074;44.696;10.358;2023-07-13T13:20:50;99715.97;;;40.34;44.08
74524;BME280;63074;44.696;10.358;2023-07-13T13:23:19;99704.34;;;40.87;42.62
74524;BME280;63074;44.696;10.358;2023-07-13T13:25:48;99785.22;;;37.65;48.40
74524;BME280;63074;44.696;10.358;2023-07-13T13:28:22;99811.41;;;36.64;51.16
74524;BME280;63074;44.696;10.358;2023-07-13T13:30:49;99753.50;;;38.98;47.39
74524;BME280;63074;44.696;10.358;2023-07-13T13:33:19;99736.75;;;39.46;45.18
74524;BME280;63074;44.696;10.358;2023-07-13T13:35:45;99724.81;;;39.06;43.74
74524;BME280;63074;44.696;10.358;2023-07-13T13:38:17;99702.13;;;40.40;42.56
74524;BME280;63074;44.696;10.358;2023-07-13T13:40:46;99700.28;;;40.75;42.63
74524;BME280;63074;44.696;10.358;2023-07-13T13:43:16;99698.13;;;41.42;41.73
74524;BME280;63074;44.696;10.358;2023-07-13T13:45:44;99696.44;;;41.45;41.10
74524;BME280;63074;44.696;10.358;2023-07-13T13:48:26;99692.84;;;41.44;39.71
74524;BME280;63074;44.696;10.358;2023-07-13T13:50:56;99697.66;;;40.68;40.27
74524;BME280;63074;44.696;10.358;2023-07-13T13:53:22;99727.44;;;39.49;42.82
74524;BME280;63074;44.696;10.358;2023-07-13T13:55:52;99722.91;;;39.85;42.24
74524;BME280;63074;44.696;10.358;2023-07-13T13:58:19;99716.56;;;40.26;41.93
74524;BME280;63074;44.696;10.358;2023-07-13T14:00:46;99790.88;;;37.62;46.88
74524;BME280;63074;44.696;10.358;2023-07-13T14:03:18;99778.38;;;38.16;46.36
74524;BME280;63074;44.696;10.358;2023-07-13T14:05:45;99801.00;;;37.82;47.23
74524;BME280;63074;44.696;10.358;2023-07-13T14:08:20;99805.50;;;38.00;47.92
74524;BME280;63074;44.696;10.358;2023-07-13T14:10:49;99793.50;;;38.23;46.79
74524;BME280;63074;44.696;10.358;2023-07-13T14:13:28;99785.13;;;38.19;45.84
74524;BME280;63074;44.696;10.358;2023-07-13T14:15:56;99781.31;;;38.09;46.88
74524;BME280;63074;44.696;10.358;2023-07-13T14:18:25;99789.84;;;38.26;46.79
74524;BME280;63074;44.696;10.358;2023-07-13T14:20:51;99818.00;;;37.14;47.62
74524;BME280;63074;44.696;10.358;2023-07-13T14:23:18;99817.16;;;37.75;46.91
74524;BME280;63074;44.696;10.358;2023-07-13T14:25:46;99875.16;;;36.01;52.70